Hibbing, MN

8:01 AM CST on February 07, 2016 (GMT -0600)
Chisholm-hibbing | | Change Station
CLOSE
Current Station
Airport
Location: Hibbing,
Elevation: 1352 ft
Nearby Weather Stations

Elev 1352 ft 47.39 °N, 92.84 °W | Updated 8 minutes ago

Snow
Snow
31 °F
Feels Like 28 °F
N
4
Wind Variable Wind from SW

Today
High -- | Low -- °F
--% Chance of Precip.
Yesterday
High -- | Low -- °F
Precip. -- in
Pressure 29.46 in
Visibility 8.0 miles
Clouds Overcast 700 ft
Windchill 28 °F
Dew Point 31 °F
Humidity 100%
Rainfall 0.00 in
Snow Depth Not available.
7:30 AM 5:22 PM
Waning Crescent, 1% visible
METAR KHIB 071353Z AUTO 22003KT 8SM OVC007 M01/M01 A2940 RMK AO2 SNE51 SLP974 P0000 T10061006 $
Pressure 29.46 in
Visibility 8.0 miles
Clouds Overcast 700 ft
Windchill 28 °F
Dew Point 31 °F
Humidity 100%
Rainfall 0.00 in
Snow Depth Not available.
7:30 AM 5:22 PM
Waning Crescent, 1% visible
METAR KHIB 071353Z AUTO 22003KT 8SM OVC007 M01/M01 A2940 RMK AO2 SNE51 SLP974 P0000 T10061006 $

10-Day Weather Forecast

Almanac

Astronomy

Feb. 07, 2016 Rise Set
Actual Time
Civil Twilight
Nautical Twilight
Astronomical Twilight
Moon
Length of Visible Light
Length of Day
Tomorrow will be .
, % of the Moon is Illuminated

Today's Extremes

State Highs State Lows

Community

WunderPhotos

Upload Photos

1,891,204 photos uploaded!

WunderBlog® & News

Nearby

Air Quality

  Air Quality AQ Index Pollutant
Not available.

Snow Depth

Station Depth Elevation

Earthquake Activity

City Distance Mag. Time & Date
Minimum magnitude displayed is 2.5.

Coastal Water Temperatures

Place Temperature

Stations

Nearby Weather Stations

Station Location Temp. Windchill Dew Point Humidity Wind Precip. Elev Updated Type
                   

Watches & Warnings

There are currently no watches in effect.